Main page
METAR-TAF:

METAR-TAF

Airports :

Aérodrome de Dax - Seyresse

Dax, France

latitude: 43-41N, longitude: 001-04W, elevation: 32 m

Current weather observation

The report was made 32 minutes ago, at 21:30 UTC
Calm wind
Temperature 12°C
Humidity 94%
Pressure 1020 hPa
Visibility: 7000 m

METAR: LFBY 212130Z AUTO 00000KT 7000 // ////// 12/11 Q1020

Time: 00:02 (22:02 UTC)

Forecast

The report was made 14 hours and 2 minutes ago, at 08:00 UTC
Forecast valid from 21 at 09 UTC to 21 at 18 UTC
Wind 3 kt from the East
Visibility 10 km or more
no clouds below 1500 m and no cumulonimbus
Temporary
from 21 at 12 UTC to 21 at 18 UTC
Visibility: 4000 m
Broken clouds at a height of 2500 ft, Towering cumulus.
light rain showers

TAF: LFBY 210800Z 2109/2118 10003KT CAVOK TEMPO 2112/2118 4000 -SHRA BKN025TCU

Weather observations and forecasts of more than 4000 airports (METAR and TAF reports).

The available stations are represented by yellow and red dots on the map.

Hover mouse over dot to see the name of the station.

Then click to see weather observations and forecasts.

To change the map : click on the green buttons with a black cross to zoom in, on the green button with a dash to zoom out, or on the green arrows for adjacent maps.


METAR-TAF: